Time;durP1;ratioP1;P1;durP2;ratioP2;P2;SDS_P1;SDS_P2;PMS_P1;PMS_P2;Temp;Humidity;BMP_temperature;BMP_pressure;BME280_temperature;BME280_humidity;BME280_pressure;Samples;Min_cycle;Max_cycle;Signal;HPM_P1;HPM_P2
2022/11/16 00:01:12;;;;;;;;;;;;;;;13.53;68.96;101253.63;5074471;28;19958;-88
2022/11/16 00:03:38;;;;;;;;;;;;;;;13.48;69.18;101249.84;5057092;28;19909;-88
2022/11/16 00:06:04;;;;;;;;;;;;;;;13.47;69.14;101245.44;5073980;28;19915;-88
2022/11/16 00:08:30;;;;;;;;;;;;;;;13.43;69.42;101245.28;5073950;28;20374;-87
2022/11/16 00:11:17;;;;;;;;;;;;;;;13.44;69.13;101246.22;5074426;28;19920;-87
2022/11/16 00:13:43;;;;;;;;;;;;;;;13.42;69.28;101243.50;5073901;28;20541;-87
2022/11/16 00:16:15;;;;;;;;;;;;;;;13.44;69.39;101240.97;5058025;28;20012;-88
2022/11/16 00:18:41;;;;;;;;;;;;;;;13.43;69.15;101247.91;5064808;28;19920;-87
2022/11/16 00:21:06;;;;;;;;;;;;;;;13.43;69.26;101237.41;5083932;28;19908;-86
2022/11/16 00:23:49;;;;;;;;;;;;;;;13.40;69.18;101239.00;5055959;28;19999;-88
2022/11/16 00:26:16;;;;;;;;;;;;;;;13.41;69.05;101236.44;5075770;28;19908;-87
2022/11/16 00:28:42;;;;;;;;;;;;;;;13.38;69.45;101233.66;5075392;28;19917;-86
2022/11/16 00:31:08;;;;;;;;;;;;;;;13.39;69.31;101234.56;5070467;28;19917;-88
2022/11/16 00:33:33;;;;;;;;;;;;;;;13.41;69.29;101227.66;5066836;28;20293;-88
2022/11/16 00:36:03;;;;;;;;;;;;;;;13.43;68.95;101237.41;5079994;28;20541;-87
2022/11/16 00:38:29;;;;;;;;;;;;;;;13.41;69.02;101214.56;5074775;28;19962;-86
2022/11/16 00:40:54;;;;;;;;;;;;;;;13.46;68.88;101215.66;5088752;28;19908;-87
2022/11/16 00:43:20;;;;;;;;;;;;;;;13.48;68.94;101223.63;5073202;28;19915;-86
2022/11/16 00:45:45;;;;;;;;;;;;;;;13.44;69.06;101217.34;5073290;28;19970;-87
2022/11/16 00:48:11;;;;;;;;;;;;;;;13.40;68.94;101208.41;5072095;28;20301;-86
2022/11/16 00:50:36;;;;;;;;;;;;;;;13.39;69.20;101214.47;5071839;28;19909;-88
2022/11/16 00:53:02;;;;;;;;;;;;;;;13.42;68.98;101209.38;5072010;28;19909;-86
2022/11/16 00:55:28;;;;;;;;;;;;;;;13.36;68.96;101210.81;5072872;28;20024;-87
2022/11/16 00:57:53;;;;;;;;;;;;;;;13.35;69.26;101206.38;5071924;28;19916;-87
2022/11/16 01:00:18;;;;;;;;;;;;;;;13.34;68.95;101202.84;5071438;28;20377;-88
2022/11/16 01:02:44;;;;;;;;;;;;;;;13.34;69.11;101202.84;5071662;28;20500;-88
2022/11/16 01:05:09;;;;;;;;;;;;;;;13.39;68.94;101201.34;5073049;28;19912;-88
2022/11/16 01:07:36;;;;;;;;;;;;;;;13.35;68.90;101194.16;5071040;28;19965;-89
2022/11/16 01:10:13;;;;;;;;;;;;;;;13.34;69.03;101187.13;5071631;28;20011;-88
2022/11/16 01:12:39;;;;;;;;;;;;;;;13.36;68.86;101184.59;5055074;28;19908;-88
2022/11/16 01:15:07;;;;;;;;;;;;;;;13.32;69.01;101186.16;5060960;28;20282;-87
2022/11/16 01:17:33;;;;;;;;;;;;;;;13.34;68.97;101178.34;5073820;28;19912;-89
2022/11/16 01:19:58;;;;;;;;;;;;;;;13.35;68.94;101181.03;5085452;28;19913;-88
2022/11/16 01:22:23;;;;;;;;;;;;;;;13.36;68.75;101174.97;5071629;28;19908;-88
2022/11/16 01:24:49;;;;;;;;;;;;;;;13.34;68.79;101175.75;5072201;28;20290;-88
2022/11/16 01:27:14;;;;;;;;;;;;;;;13.35;68.95;101174.91;5088435;28;19916;-86
2022/11/16 01:29:40;;;;;;;;;;;;;;;13.35;68.92;101172.28;5070667;28;20339;-88
2022/11/16 01:32:05;;;;;;;;;;;;;;;13.37;68.74;101174.13;5074666;28;19995;-87
2022/11/16 01:34:31;;;;;;;;;;;;;;;13.39;68.44;101163.72;5051516;28;19916;-89
2022/11/16 01:36:57;;;;;;;;;;;;;;;13.39;68.36;101168.97;5070453;28;19919;-88
2022/11/16 01:39:23;;;;;;;;;;;;;;;13.37;68.33;101168.91;5061110;28;19908;-88
2022/11/16 01:41:49;;;;;;;;;;;;;;;13.39;68.43;101174.22;5053993;28;19916;-88
2022/11/16 01:44:15;;;;;;;;;;;;;;;13.33;68.71;101168.69;5072540;28;19909;-88
2022/11/16 01:46:41;;;;;;;;;;;;;;;13.31;68.59;101167.69;5071841;28;20416;-88
2022/11/16 01:49:13;;;;;;;;;;;;;;;13.33;68.80;101169.56;5051023;28;19930;-88
2022/11/16 01:51:39;;;;;;;;;;;;;;;13.37;68.48;101170.63;5060887;28;20321;-88
2022/11/16 01:54:05;;;;;;;;;;;;;;;13.31;68.50;101165.06;5070315;28;19913;-89
2022/11/16 01:56:30;;;;;;;;;;;;;;;13.28;68.67;101160.56;5054254;28;19952;-87
2022/11/16 01:58:56;;;;;;;;;;;;;;;13.27;68.74;101156.16;5070714;28;19947;-88
2022/11/16 02:01:21;;;;;;;;;;;;;;;13.29;68.58;101153.63;5070573;28;19918;-86
2022/11/16 02:03:47;;;;;;;;;;;;;;;13.26;68.78;101150.81;5070042;28;19909;-88
2022/11/16 02:06:25;;;;;;;;;;;;;;;13.29;68.89;101153.63;5069904;28;19908;-87
2022/11/16 02:11:37;;;;;;;;;;;;;;;13.30;68.65;101147.56;5069162;28;19919;-89
2022/11/16 02:14:02;;;;;;;;;;;;;;;13.24;68.82;101145.50;5070268;28;20332;-87
2022/11/16 02:16:38;;;;;;;;;;;;;;;13.24;68.94;101148.09;5068261;28;19915;-86
2022/11/16 02:19:25;;;;;;;;;;;;;;;13.18;68.96;101142.56;5070436;28;19951;-88
2022/11/16 02:21:52;;;;;;;;;;;;;;;13.22;68.85;101134.91;5070191;28;19908;-88
2022/11/16 02:24:18;;;;;;;;;;;;;;;13.24;68.81;101132.38;5070585;28;19915;-88
2022/11/16 02:26:49;;;;;;;;;;;;;;;13.20;68.75;101131.31;5070184;28;20395;-89
2022/11/16 02:29:18;;;;;;;;;;;;;;;13.22;68.76;101128.78;5070680;28;20310;-89
2022/11/16 02:32:03;;;;;;;;;;;;;;;13.28;68.21;101123.84;5070222;28;19998;-88
2022/11/16 02:34:39;;;;;;;;;;;;;;;13.19;68.86;101120.78;5069993;28;19913;-88
2022/11/16 02:37:05;;;;;;;;;;;;;;;13.21;68.69;101111.25;5053543;28;19909;-88
2022/11/16 02:39:31;;;;;;;;;;;;;;;13.21;68.32;101108.63;5089941;28;19908;-88
2022/11/16 02:41:57;;;;;;;;;;;;;;;13.19;68.60;101111.19;5074713;28;19958;-89
2022/11/16 02:44:42;;;;;;;;;;;;;;;13.20;68.63;101112.06;5074729;28;19915;-89
2022/11/16 02:47:12;;;;;;;;;;;;;;;13.20;68.28;101110.34;5065405;28;19975;-89
2022/11/16 02:49:41;;;;;;;;;;;;;;;13.19;68.35;101111.19;5070730;28;19908;-88
2022/11/16 02:52:06;;;;;;;;;;;;;;;13.24;68.16;101106.16;5070705;28;19908;-87
2022/11/16 02:54:32;;;;;;;;;;;;;;;13.26;68.18;101103.59;5070552;28;20396;-87
2022/11/16 02:57:03;;;;;;;;;;;;;;;13.23;68.28;101104.38;5066437;28;20296;-88
2022/11/16 02:59:38;;;;;;;;;;;;;;;13.15;68.72;101109.22;5087531;28;20438;-88
2022/11/16 03:02:22;;;;;;;;;;;;;;;13.20;68.18;101099.84;5071526;28;20312;-87
2022/11/16 03:05:14;;;;;;;;;;;;;;;13.15;68.48;101092.59;5071781;28;19920;-89
2022/11/16 03:08:09;;;;;;;;;;;;;;;13.13;68.54;101099.50;5080814;28;19915;-88
2022/11/16 03:13:20;;;;;;;;;;;;;;;13.12;68.41;101089.81;5095232;28;19977;-88
2022/11/16 03:15:45;;;;;;;;;;;;;;;13.12;68.65;101092.44;5088611;28;19913;-90
2022/11/16 03:18:11;;;;;;;;;;;;;;;13.15;68.36;101088.25;5069668;28;19918;-87
2022/11/16 03:20:37;;;;;;;;;;;;;;;13.13;68.62;101084.66;5084063;28;20683;-89
2022/11/16 03:23:05;;;;;;;;;;;;;;;13.10;68.63;101078.34;5063984;28;19914;-90
2022/11/16 03:25:36;;;;;;;;;;;;;;;13.05;68.79;101078.13;5067171;28;19947;-90
2022/11/16 03:28:13;;;;;;;;;;;;;;;13.10;68.81;101081.91;5085594;28;19959;-89
2022/11/16 03:30:43;;;;;;;;;;;;;;;13.04;68.76;101081.59;5075298;28;19948;-89
2022/11/16 03:33:14;;;;;;;;;;;;;;;13.12;68.50;101077.63;5094941;28;20542;-89
2022/11/16 03:36:06;;;;;;;;;;;;;;;13.12;68.44;101082.88;5059055;28;19973;-89
2022/11/16 03:38:32;;;;;;;;;;;;;;;13.11;68.55;101074.91;5058632;28;19912;-89
2022/11/16 03:41:02;;;;;;;;;;;;;;;13.07;68.81;101070.34;5074133;28;19916;-89
2022/11/16 03:43:27;;;;;;;;;;;;;;;13.02;68.75;101070.13;5057454;28;19908;-90
2022/11/16 03:45:55;;;;;;;;;;;;;;;13.00;68.70;101069.16;5073545;28;19935;-90
2022/11/16 03:48:20;;;;;;;;;;;;;;;13.07;68.40;101060.75;5074088;28;19915;-90
2022/11/16 03:50:45;;;;;;;;;;;;;;;13.06;68.54;101056.34;5057256;28;19908;-89
2022/11/16 03:53:13;;;;;;;;;;;;;;;13.04;68.92;101051.03;5062650;28;20351;-90
2022/11/16 03:55:40;;;;;;;;;;;;;;;13.02;68.56;101057.91;5057635;28;19913;-90
2022/11/16 03:58:06;;;;;;;;;;;;;;;12.99;68.92;101049.88;5056806;28;19908;-88
2022/11/16 04:00:31;;;;;;;;;;;;;;;12.99;68.76;101059.47;5089392;28;20298;-86
2022/11/16 04:02:56;;;;;;;;;;;;;;;12.99;68.66;101049.88;5057635;28;19934;-87
2022/11/16 04:24:36;;;;;;;;;;;;;;;12.97;68.69;101034.91;5070947;28;19959;-87
2022/11/16 04:29:46;;;;;;;;;;;;;;;12.94;68.68;101033.03;5059605;28;19966;-89
2022/11/16 04:37:47;;;;;;;;;;;;;;;12.97;68.39;101022.69;5066026;28;19939;-88
2022/11/16 04:40:13;;;;;;;;;;;;;;;12.95;68.39;101020.81;5055005;28;19986;-87
2022/11/16 04:42:38;;;;;;;;;;;;;;;12.92;68.74;101023.31;5068621;28;20473;-88
2022/11/16 04:47:48;;;;;;;;;;;;;;;12.93;68.45;101012.00;5065923;28;19988;-87
2022/11/16 04:50:15;;;;;;;;;;;;;;;12.92;68.43;101011.09;5068081;28;19912;-87
2022/11/16 04:52:40;;;;;;;;;;;;;;;13.00;68.09;101009.75;5054693;28;19913;-87
2022/11/16 04:55:06;;;;;;;;;;;;;;;12.95;68.23;101016.50;5087961;28;20362;-87
2022/11/16 04:57:31;;;;;;;;;;;;;;;12.92;68.37;101005.84;5086499;28;19921;-88
2022/11/16 04:59:57;;;;;;;;;;;;;;;12.97;68.14;101008.69;5070410;28;20338;-87
2022/11/16 05:02:22;;;;;;;;;;;;;;;12.88;68.54;101011.78;5069732;28;19955;-88
2022/11/16 05:04:48;;;;;;;;;;;;;;;12.84;68.80;101004.59;5053932;28;20563;-88
2022/11/16 05:07:13;;;;;;;;;;;;;;;12.85;68.38;101009.03;5085731;28;20396;-88
2022/11/16 05:09:42;;;;;;;;;;;;;;;12.84;68.64;101009.81;5085665;28;19938;-88
2022/11/16 05:12:13;;;;;;;;;;;;;;;12.85;68.45;101014.25;5062998;28;19908;-86
2022/11/16 05:14:39;;;;;;;;;;;;;;;12.91;68.26;101004.09;5069018;28;19917;-89
2022/11/16 05:17:04;;;;;;;;;;;;;;;12.88;68.58;101013.50;5079923;28;19909;-87
2022/11/16 05:22:14;;;;;;;;;;;;;;;12.88;68.21;101013.50;5067914;28;19962;-86
2022/11/16 05:24:39;;;;;;;;;;;;;;;12.83;68.75;101011.56;5067275;28;19912;-88
2022/11/16 05:27:09;;;;;;;;;;;;;;;12.83;68.26;101011.56;5084714;28;19997;-87
2022/11/16 05:29:34;;;;;;;;;;;;;;;12.84;68.21;101010.72;5083291;28;20305;-87
2022/11/16 05:32:01;;;;;;;;;;;;;;;12.82;68.25;101012.38;5056335;28;19916;-88
2022/11/16 05:34:27;;;;;;;;;;;;;;;12.85;68.33;101003.78;5068117;28;19959;-88
2022/11/16 05:36:52;;;;;;;;;;;;;;;12.83;68.44;101005.44;5052734;28;20354;-88
2022/11/16 05:39:18;;;;;;;;;;;;;;;12.82;68.40;101008.84;5067770;28;19908;-86
2022/11/16 05:41:44;;;;;;;;;;;;;;;12.84;68.05;101015.06;5070412;28;19939;-86
2022/11/16 05:44:09;;;;;;;;;;;;;;;12.83;68.01;101008.94;5076451;28;20352;-86
2022/11/16 05:46:35;;;;;;;;;;;;;;;12.79;68.32;101009.59;5069028;28;19919;-86
2022/11/16 05:49:00;;;;;;;;;;;;;;;12.79;68.31;101011.34;5062620;28;20273;-86
2022/11/16 05:51:28;;;;;;;;;;;;;;;12.78;68.31;101010.44;5061760;28;19916;-85
2022/11/16 05:53:55;;;;;;;;;;;;;;;12.76;68.74;101005.94;5077485;28;19892;-87
2022/11/16 05:56:20;;;;;;;;;;;;;;;12.78;68.31;101002.59;5088905;28;19927;-87
2022/11/16 05:58:46;;;;;;;;;;;;;;;12.74;68.22;101003.25;5057643;28;19908;-87
2022/11/16 06:01:11;;;;;;;;;;;;;;;12.77;68.15;101002.50;5061069;28;19920;-86
2022/11/16 06:03:36;;;;;;;;;;;;;;;12.79;68.42;101006.09;5070519;28;19912;-86
2022/11/16 06:06:02;;;;;;;;;;;;;;;12.71;68.54;101005.72;5052529;28;19984;-86
2022/11/16 06:08:28;;;;;;;;;;;;;;;12.77;68.06;101000.78;5053503;28;19908;-86
2022/11/16 06:10:53;;;;;;;;;;;;;;;12.73;68.37;100996.22;5052367;28;19923;-88
2022/11/16 06:13:19;;;;;;;;;;;;;;;12.72;68.51;100988.25;5052741;28;20314;-86
2022/11/16 06:15:44;;;;;;;;;;;;;;;12.75;68.30;100994.56;5069942;28;19969;-87
2022/11/16 06:18:10;;;;;;;;;;;;;;;12.69;68.50;100989.00;5079433;28;19959;-88
2022/11/16 06:20:36;;;;;;;;;;;;;;;12.68;68.52;100986.31;5051495;28;20442;-88
2022/11/16 06:23:02;;;;;;;;;;;;;;;12.66;68.47;100978.41;5062173;28;19917;-88
2022/11/16 06:25:29;;;;;;;;;;;;;;;12.64;68.69;100974.81;5061789;28;19909;-88
2022/11/16 06:27:56;;;;;;;;;;;;;;;12.73;68.54;100975.25;5053701;28;19913;-88
2022/11/16 06:30:22;;;;;;;;;;;;;;;12.73;68.23;100963.88;5052220;28;19917;-87
2022/11/16 06:32:47;;;;;;;;;;;;;;;12.66;68.80;100967.00;5069442;28;19912;-88
2022/11/16 06:35:12;;;;;;;;;;;;;;;12.66;68.43;100959.13;5069484;28;19916;-88
2022/11/16 06:37:38;;;;;;;;;;;;;;;12.66;68.45;100948.66;5082666;28;19909;-89
2022/11/16 06:40:04;;;;;;;;;;;;;;;12.65;68.83;100945.16;5068041;28;19943;-89
2022/11/16 06:42:29;;;;;;;;;;;;;;;12.60;68.84;100942.31;5066452;28;19908;-88
2022/11/16 06:44:54;;;;;;;;;;;;;;;12.60;68.72;100937.06;5052244;28;19920;-89
2022/11/16 06:47:20;;;;;;;;;;;;;;;12.65;68.56;100932.06;5053088;28;20374;-88
2022/11/16 06:49:46;;;;;;;;;;;;;;;12.62;68.48;100930.19;5053501;28;19998;-87
2022/11/16 06:52:11;;;;;;;;;;;;;;;12.64;68.80;100917.16;5069208;28;20129;-84
2022/11/16 06:54:37;;;;;;;;;;;;;;;12.60;68.83;100916.13;5053227;28;19917;-86
2022/11/16 06:57:02;;;;;;;;;;;;;;;12.65;68.36;100921.56;5049759;28;20477;-85
2022/11/16 06:59:28;;;;;;;;;;;;;;;12.60;68.83;100923.09;5058541;28;20401;-88
2022/11/16 07:01:53;;;;;;;;;;;;;;;12.65;68.34;100918.94;5077391;28;19908;-88
2022/11/16 07:04:19;;;;;;;;;;;;;;;12.62;68.68;100917.09;5079412;28;19913;-90
2022/11/16 07:06:44;;;;;;;;;;;;;;;12.68;68.15;100919.13;5073189;28;20387;-88
2022/11/16 07:09:09;;;;;;;;;;;;;;;12.64;68.42;100914.56;5074014;28;19908;-89
2022/11/16 07:11:35;;;;;;;;;;;;;;;12.65;68.33;100915.44;5086637;28;19912;-88
2022/11/16 07:14:01;;;;;;;;;;;;;;;12.63;68.38;100911.00;5070255;28;20071;-89
2022/11/16 07:16:26;;;;;;;;;;;;;;;12.66;68.21;100909.34;5080694;28;19908;-88
2022/11/16 07:18:55;;;;;;;;;;;;;;;12.66;68.40;100914.59;5073427;28;20003;-87
2022/11/16 07:21:21;;;;;;;;;;;;;;;12.61;68.59;100919.63;5081004;28;19912;-88
2022/11/16 07:23:47;;;;;;;;;;;;;;;12.62;68.48;100917.09;5056769;28;20348;-88
2022/11/16 07:26:12;;;;;;;;;;;;;;;12.59;68.74;100911.72;5063352;28;19912;-87
2022/11/16 07:28:38;;;;;;;;;;;;;;;12.55;68.63;100904.53;5072329;28;20401;-87
2022/11/16 07:31:07;;;;;;;;;;;;;;;12.57;68.80;100904.56;5070850;28;19908;-90
2022/11/16 07:33:33;;;;;;;;;;;;;;;12.62;68.46;100903.09;5086511;28;19912;-88
2022/11/16 07:36:11;;;;;;;;;;;;;;;12.59;68.82;100897.69;5085222;28;19912;-86
2022/11/16 07:38:37;;;;;;;;;;;;;;;12.57;68.68;100892.41;5072972;28;20401;-88
2022/11/16 07:41:03;;;;;;;;;;;;;;;12.59;68.77;100885.53;5067983;28;19908;-87
2022/11/16 07:43:30;;;;;;;;;;;;;;;12.60;68.65;100896.88;5071904;28;19995;-86
2022/11/16 07:45:57;;;;;;;;;;;;;;;12.62;68.59;100900.47;5056114;28;19912;-86
2022/11/16 07:48:23;;;;;;;;;;;;;;;12.64;68.61;100896.22;5071335;28;19966;-87
2022/11/16 07:50:48;;;;;;;;;;;;;;;12.60;68.87;100894.25;5072318;28;19924;-86
2022/11/16 07:53:13;;;;;;;;;;;;;;;12.60;68.62;100902.13;5054992;28;20359;-85
2022/11/16 07:55:40;;;;;;;;;;;;;;;12.61;68.78;100894.34;5060786;28;20347;-89
2022/11/16 07:58:05;;;;;;;;;;;;;;;12.62;68.70;100890.00;5073320;28;19916;-90
2022/11/16 08:00:32;;;;;;;;;;;;;;;12.59;68.50;100895.06;5056740;28;20380;-91
2022/11/16 08:02:57;;;;;;;;;;;;;;;12.55;68.82;100898.38;5064717;28;19935;-87
2022/11/16 08:05:23;;;;;;;;;;;;;;;12.61;68.85;100896.97;5054383;28;20374;-89
2022/11/16 08:07:48;;;;;;;;;;;;;;;12.65;68.49;100894.47;5066048;28;20314;-89
2022/11/16 08:10:17;;;;;;;;;;;;;;;12.55;69.01;100898.38;5073241;28;20456;-89
2022/11/16 08:12:42;;;;;;;;;;;;;;;12.47;69.13;100890.16;5055267;28;20054;-89
2022/11/16 08:15:08;;;;;;;;;;;;;;;12.51;68.73;100893.81;5050846;28;20368;-89
2022/11/16 08:17:33;;;;;;;;;;;;;;;12.55;68.82;100882.66;5065641;28;19912;-89
2022/11/16 08:20:00;;;;;;;;;;;;;;;12.58;69.21;100883.72;5055680;28;20368;-87
2022/11/16 08:22:25;;;;;;;;;;;;;;;12.45;69.31;100878.72;5073834;28;20370;-89
2022/11/16 08:24:51;;;;;;;;;;;;;;;12.46;69.22;100877.88;5056334;28;19915;-87
2022/11/16 08:27:16;;;;;;;;;;;;;;;12.52;69.28;100885.13;5053105;28;19935;-89
2022/11/16 08:29:41;;;;;;;;;;;;;;;12.58;69.09;100869.72;5059242;28;19916;-90
2022/11/16 08:35:10;;;;;;;;;;;;;;;12.58;68.82;100867.09;5092119;28;19923;-90
2022/11/16 08:37:35;;;;;;;;;;;;;;;12.61;68.90;100860.28;5098544;28;19976;-90
2022/11/16 08:40:02;;;;;;;;;;;;;;;12.56;68.96;100859.16;5062020;28;19908;-86
2022/11/16 08:42:27;;;;;;;;;;;;;;;12.55;69.07;100856.47;5090020;28;19908;-87
2022/11/16 08:44:54;;;;;;;;;;;;;;;12.64;69.09;100851.69;5058119;28;20330;-87
2022/11/16 08:47:19;;;;;;;;;;;;;;;12.56;69.32;100848.69;5072338;28;20301;-87
2022/11/16 08:49:45;;;;;;;;;;;;;;;12.51;69.35;100846.66;5060118;28;20373;-86
2022/11/16 08:52:11;;;;;;;;;;;;;;;12.54;69.40;100839.84;5073463;28;19908;-87
2022/11/16 08:54:36;;;;;;;;;;;;;;;12.55;69.04;100835.50;5072441;28;19920;-86
2022/11/16 08:57:02;;;;;;;;;;;;;;;12.55;69.61;100830.25;5072281;28;20388;-88
2022/11/16 08:59:30;;;;;;;;;;;;;;;12.55;69.68;100830.25;5073998;28;19908;-89
2022/11/16 09:01:56;;;;;;;;;;;;;;;12.53;69.23;100830.22;5072515;28;20399;-89
2022/11/16 09:04:23;;;;;;;;;;;;;;;12.55;69.39;100825.94;5052919;28;19909;-89
2022/11/16 09:06:51;;;;;;;;;;;;;;;12.52;69.45;100819.66;5072750;28;19939;-88
2022/11/16 09:09:17;;;;;;;;;;;;;;;12.51;69.88;100808.28;5055411;28;20003;-89
2022/11/16 09:11:42;;;;;;;;;;;;;;;12.55;69.60;100809.31;5055765;28;20010;-87
2022/11/16 09:14:08;;;;;;;;;;;;;;;12.59;69.96;100806.00;5052286;28;19908;-86
2022/11/16 09:16:33;;;;;;;;;;;;;;;12.59;69.42;100809.56;5080536;28;20293;-89
2022/11/16 09:18:59;;;;;;;;;;;;;;;12.58;69.52;100801.59;5057428;28;20093;-87
2022/11/16 09:21:26;;;;;;;;;;;;;;;12.59;69.65;100801.69;5068463;28;19915;-89
2022/11/16 09:23:54;;;;;;;;;;;;;;;12.63;69.63;100800.97;5071989;28;20135;-90
2022/11/16 09:26:21;;;;;;;;;;;;;;;12.63;70.01;100790.50;5071384;28;20558;-89
2022/11/16 09:28:57;;;;;;;;;;;;;;;12.64;69.48;100791.41;5072512;28;19909;-89
2022/11/16 09:31:27;;;;;;;;;;;;;;;12.64;69.92;100778.31;5089377;28;19979;-89
2022/11/16 09:33:52;;;;;;;;;;;;;;;12.61;69.88;100776.47;5074129;28;19912;-92
2022/11/16 09:36:23;;;;;;;;;;;;;;;12.67;69.71;100782.78;5059186;28;20309;-91
2022/11/16 09:38:49;;;;;;;;;;;;;;;12.61;69.80;100779.09;5075014;28;20401;-91
2022/11/16 09:41:23;;;;;;;;;;;;;;;12.65;69.84;100771.34;5055150;28;19916;-91
2022/11/16 09:44:08;;;;;;;;;;;;;;;12.66;70.20;100773.13;5079469;28;20361;-89
2022/11/16 09:46:42;;;;;;;;;;;;;;;12.70;69.95;100772.44;5073434;28;19981;-89
2022/11/16 09:49:23;;;;;;;;;;;;;;;12.73;69.97;100776.09;5072177;28;19908;-89
2022/11/16 09:51:51;;;;;;;;;;;;;;;12.73;69.96;100762.13;5087876;28;19995;-90
2022/11/16 09:54:22;;;;;;;;;;;;;;;12.72;70.12;100771.72;5050282;28;20470;-90
2022/11/16 09:56:53;;;;;;;;;;;;;;;12.77;70.09;100758.81;5057558;28;19965;-90
2022/11/16 09:59:19;;;;;;;;;;;;;;;12.76;70.32;100757.00;5073922;28;20352;-91
2022/11/16 10:01:56;;;;;;;;;;;;;;;12.86;69.70;100743.47;5074600;28;19917;-91
2022/11/16 10:07:12;;;;;;;;;;;;;;;12.90;70.06;100736.66;5063961;28;19912;-88
2022/11/16 10:09:37;;;;;;;;;;;;;;;12.96;70.15;100732.56;5060527;28;19923;-92
2022/11/16 10:12:12;;;;;;;;;;;;;;;12.87;70.19;100740.06;5061987;28;19912;-88
2022/11/16 10:15:03;;;;;;;;;;;;;;;12.91;70.72;100730.56;5068263;28;19912;-88
2022/11/16 10:17:47;;;;;;;;;;;;;;;12.92;70.78;100728.03;5071068;28;19965;-91
2022/11/16 10:23:22;;;;;;;;;;;;;;;13.08;70.56;100720.81;5060852;28;19908;-91
2022/11/16 10:25:52;;;;;;;;;;;;;;;13.20;70.98;100724.88;5073735;28;20361;-92
2022/11/16 10:28:22;;;;;;;;;;;;;;;13.17;71.04;100709.00;5056924;28;19908;-89
2022/11/16 10:30:49;;;;;;;;;;;;;;;13.11;71.38;100703.50;5054822;28;19908;-86
2022/11/16 10:33:17;;;;;;;;;;;;;;;13.03;71.44;100695.31;5073362;28;19908;-89
2022/11/16 10:35:53;;;;;;;;;;;;;;;13.11;72.09;100686.88;5054702;28;19923;-90
2022/11/16 10:38:24;;;;;;;;;;;;;;;13.07;71.81;100696.34;5054975;28;19931;-89
2022/11/16 10:40:51;;;;;;;;;;;;;;;13.06;71.54;100693.66;5053962;28;19908;-90
2022/11/16 10:43:18;;;;;;;;;;;;;;;13.11;71.63;100700.00;5054116;28;20340;-90
2022/11/16 10:45:46;;;;;;;;;;;;;;;13.20;71.47;100689.88;5054536;28;19908;-89
2022/11/16 10:48:21;;;;;;;;;;;;;;;13.29;71.62;100687.66;5070646;28;19956;-90
2022/11/16 10:50:47;;;;;;;;;;;;;;;13.30;71.34;100679.00;5072066;28;19908;-88
2022/11/16 10:53:25;;;;;;;;;;;;;;;13.27;71.69;100672.69;5056765;28;19913;-90
2022/11/16 10:56:13;;;;;;;;;;;;;;;13.29;71.41;100671.03;5071038;28;20011;-89
2022/11/16 10:58:51;;;;;;;;;;;;;;;13.24;72.14;100666.47;5071348;28;19914;-85
2022/11/16 11:01:33;;;;;;;;;;;;;;;13.15;72.05;100658.22;5071607;28;20030;-86
2022/11/16 11:04:17;;;;;;;;;;;;;;;13.23;71.73;100663.81;5058374;28;19909;-85
2022/11/16 11:06:42;;;;;;;;;;;;;;;13.26;71.88;100657.78;5069567;28;19999;-86
2022/11/16 11:09:13;;;;;;;;;;;;;;;13.15;71.93;100657.34;5066780;28;19943;-86
2022/11/16 11:14:23;;;;;;;;;;;;;;;13.12;72.10;100651.97;5070428;28;19985;-86
2022/11/16 11:16:52;;;;;;;;;;;;;;;13.16;71.63;100654.78;5071124;28;19932;-86
2022/11/16 11:19:24;;;;;;;;;;;;;;;13.22;72.13;100641.03;5050880;28;19912;-85
2022/11/16 11:21:54;;;;;;;;;;;;;;;13.20;72.13;100646.19;5066424;28;20421;-84
2022/11/16 11:24:19;;;;;;;;;;;;;;;13.29;72.03;100636.97;5069560;28;19909;-85
2022/11/16 11:26:48;;;;;;;;;;;;;;;13.20;72.46;100630.47;5071275;28;19908;-86
2022/11/16 11:29:19;;;;;;;;;;;;;;;13.26;72.64;100628.94;5074280;28;19962;-86
2022/11/16 11:31:47;;;;;;;;;;;;;;;13.32;72.23;100621.38;5071281;28;19908;-85
2022/11/16 11:34:19;;;;;;;;;;;;;;;13.37;72.16;100625.94;5052775;28;20370;-85
2022/11/16 11:36:47;;;;;;;;;;;;;;;13.32;72.34;100621.38;5069539;28;19908;-85
2022/11/16 11:39:12;;;;;;;;;;;;;;;13.31;72.63;100623.06;5052869;28;20346;-89
2022/11/16 11:41:44;;;;;;;;;;;;;;;13.31;72.53;100622.19;5065713;28;19974;-86
2022/11/16 11:44:12;;;;;;;;;;;;;;;13.23;72.91;100622.75;5049897;28;19909;-85
2022/11/16 11:46:39;;;;;;;;;;;;;;;13.29;72.91;100616.88;5080216;28;19991;-85
2022/11/16 11:49:10;;;;;;;;;;;;;;;13.26;72.96;100615.84;5060222;28;20370;-85
2022/11/16 11:51:39;;;;;;;;;;;;;;;13.20;73.42;100604.25;5070846;28;19908;-86
2022/11/16 11:54:05;;;;;;;;;;;;;;;13.19;73.69;100606.84;5074934;28;19998;-87
2022/11/16 11:56:32;;;;;;;;;;;;;;;13.22;73.52;100601.69;5073361;28;20023;-85
2022/11/16 11:58:57;;;;;;;;;;;;;;;13.48;72.38;100591.38;5073274;28;19913;-85
2022/11/16 12:01:27;;;;;;;;;;;;;;;13.38;72.63;100598.00;5076484;28;19991;-85
2022/11/16 12:03:52;;;;;;;;;;;;;;;13.43;72.94;100601.69;5072621;28;19935;-86
2022/11/16 12:06:18;;;;;;;;;;;;;;;13.50;72.69;100592.34;5066591;28;20371;-85
2022/11/16 12:08:44;;;;;;;;;;;;;;;13.45;73.49;100592.16;5042068;28;19916;-86
2022/11/16 12:11:12;;;;;;;;;;;;;;;13.46;73.28;100585.19;5072944;28;19916;-85
2022/11/16 12:14:10;;;;;;;;;;;;;;;13.48;73.37;100580.88;5074011;28;20313;-86
2022/11/16 12:16:38;;;;;;;;;;;;;;;13.59;73.07;100585.72;5051011;28;19912;-85
2022/11/16 12:19:03;;;;;;;;;;;;;;;13.56;73.46;100572.47;5055904;28;19950;-87
2022/11/16 12:21:39;;;;;;;;;;;;;;;13.55;73.59;100578.56;5072845;28;20352;-85
2022/11/16 12:24:09;;;;;;;;;;;;;;;13.56;73.71;100576.84;5072419;28;19918;-86
2022/11/16 12:26:46;;;;;;;;;;;;;;;13.54;73.11;100570.63;5072881;28;20377;-87
2022/11/16 12:29:25;;;;;;;;;;;;;;;13.58;72.89;100570.81;5073527;28;20317;-86
2022/11/16 12:32:09;;;;;;;;;;;;;;;13.57;74.14;100569.03;5072763;28;19915;-85
2022/11/16 12:34:41;;;;;;;;;;;;;;;13.69;73.92;100568.59;5055536;28;19912;-87
2022/11/16 12:37:13;;;;;;;;;;;;;;;13.70;73.09;100574.75;5074229;28;19915;-86
2022/11/16 12:39:51;;;;;;;;;;;;;;;13.71;74.03;100561.66;5070493;28;20395;-86
2022/11/16 12:42:26;;;;;;;;;;;;;;;13.77;74.02;100559.28;5065788;28;19908;-86
2022/11/16 12:45:00;;;;;;;;;;;;;;;13.79;74.81;100556.72;5074724;28;19951;-87
2022/11/16 12:47:38;;;;;;;;;;;;;;;13.67;74.56;100556.25;5077981;28;20367;-87
2022/11/16 12:50:07;;;;;;;;;;;;;;;13.71;74.25;100553.81;5071032;28;19912;-88
2022/11/16 12:52:35;;;;;;;;;;;;;;;13.77;75.19;100556.66;5071441;28;20282;-88
2022/11/16 12:55:16;;;;;;;;;;;;;;;13.71;75.71;100555.53;5079474;28;20404;-86
2022/11/16 12:57:50;;;;;;;;;;;;;;;13.77;74.43;100553.16;5071220;28;20377;-86
2022/11/16 13:00:16;;;;;;;;;;;;;;;13.84;74.57;100548.19;5078117;28;20301;-88
2022/11/16 13:02:47;;;;;;;;;;;;;;;13.83;75.35;100548.13;5079027;28;19912;-88
2022/11/16 13:05:13;;;;;;;;;;;;;;;13.78;75.60;100555.84;5072711;28;20435;-88
2022/11/16 13:07:43;;;;;;;;;;;;;;;13.74;75.79;100551.31;5083738;28;19916;-89
2022/11/16 13:10:12;;;;;;;;;;;;;;;13.80;73.89;100553.25;5078421;28;19916;-87
2022/11/16 13:12:38;;;;;;;;;;;;;;;13.78;74.88;100547.09;5083404;28;19912;-85
2022/11/16 13:15:04;;;;;;;;;;;;;;;13.88;75.07;100533.44;5078715;28;19912;-87
2022/11/16 13:17:34;;;;;;;;;;;;;;;13.76;74.92;100540.88;5057852;28;20432;-87
2022/11/16 13:20:17;;;;;;;;;;;;;;;13.75;75.17;100531.19;5085655;28;19912;-87
2022/11/16 13:22:56;;;;;;;;;;;;;;;13.83;75.01;100530.66;5081677;28;20380;-86
2022/11/16 13:25:23;;;;;;;;;;;;;;;13.75;74.94;100534.72;5065253;28;19919;-87
2022/11/16 13:28:13;;;;;;;;;;;;;;;13.79;74.86;100527.84;5068055;28;19931;-87
2022/11/16 13:30:50;;;;;;;;;;;;;;;13.88;75.82;100535.16;5033522;28;19912;-86
2022/11/16 13:33:35;;;;;;;;;;;;;;;13.78;76.56;100541.84;5048146;28;19908;-86